Time;durP1;ratioP1;P1;durP2;ratioP2;P2;SDS_P1;SDS_P2;PMS_P1;PMS_P2;Temp;Humidity;BMP_temperature;BMP_pressure;BME280_temperature;BME280_humidity;BME280_pressure;Samples;Min_cycle;Max_cycle;Signal;HPM_P1;HPM_P2
2022/10/20 17:18:58;;;;;;;5.90;4.40;;;13.20;99.90;;;;;;5179961;27;20311;-88
2022/10/20 17:21:27;;;;;;;5.40;4.80;;;13.30;99.90;;;;;;5252857;22;20237;-87
2022/10/20 17:24:15;;;;;;;5.13;4.63;;;13.30;99.90;;;;;;5104898;28;20173;-88
2022/10/20 17:26:42;;;;;;;6.17;4.33;;;13.40;99.90;;;;;;5100327;28;20242;-87
2022/10/20 17:29:09;;;;;;;5.70;4.70;;;13.50;99.90;;;;;;5099080;22;20219;-86
2022/10/20 17:31:36;;;;;;;4.93;4.43;;;13.60;99.90;;;;;;5077323;28;20183;-87
2022/10/20 17:34:02;;;;;;;5.60;5.10;;;13.60;99.90;;;;;;5076154;28;20524;-87
2022/10/20 17:36:29;;;;;;;5.53;4.70;;;13.70;99.90;;;;;;5076746;28;20175;-88
2022/10/20 17:44:11;;;;;;;5.23;4.80;;;13.90;99.90;;;;;;6152284;22;20411;-87
2022/10/20 17:46:37;;;;;;;6.13;4.43;;;13.90;99.90;;;;;;5127446;28;20183;-88
2022/10/20 17:49:03;;;;;;;6.40;4.60;;;13.90;99.90;;;;;;5168512;22;20178;-86
2022/10/20 17:51:32;;;;;;;5.40;4.90;;;13.80;99.90;;;;;;5140819;27;20176;-87
2022/10/20 17:53:57;;;;;;;5.97;4.90;;;13.90;99.90;;;;;;5139838;28;20209;-87
2022/10/20 17:56:33;;;;;;;5.43;4.93;;;13.90;99.90;;;;;;5136584;28;20177;-86
2022/10/20 17:59:01;;;;;;;5.03;4.63;;;13.90;99.90;;;;;;5141129;28;20180;-87
2022/10/20 18:01:32;;;;;;;5.37;4.90;;;13.90;99.90;;;;;;5196940;22;20249;-87
2022/10/20 18:04:09;;;;;;;5.43;4.93;;;13.90;99.90;;;;;;5170961;22;20230;-85
2022/10/20 18:07:10;;;;;;;6.87;5.30;;;13.80;99.90;;;;;;5086216;28;20169;-86
2022/10/20 18:09:38;;;;;;;7.33;4.90;;;13.80;99.90;;;;;;5077511;28;20183;-85
2022/10/20 18:12:03;;;;;;;6.07;5.30;;;13.80;99.90;;;;;;5076340;28;20196;-87
2022/10/20 18:14:29;;;;;;;6.60;5.33;;;13.80;99.90;;;;;;5077947;28;20179;-87
2022/10/20 18:16:55;;;;;;;7.20;5.23;;;13.80;99.90;;;;;;5076698;28;20298;-89
2022/10/20 18:19:23;;;;;;;6.03;5.33;;;13.80;99.90;;;;;;5221709;22;20232;-84
2022/10/20 18:21:49;;;;;;;5.47;4.97;;;13.80;99.90;;;;;;5033751;28;20206;-87
2022/10/20 18:24:16;;;;;;;5.63;5.13;;;13.80;99.90;;;;;;5035602;28;20165;-87
2022/10/20 18:26:43;;;;;;;6.80;5.67;;;13.80;99.90;;;;;;5043129;28;20991;-86
2022/10/20 18:38:27;;;;;;;6.17;5.53;;;13.80;99.90;;;;;;4199900;23;20239;-86
2022/10/20 18:40:55;;;;;;;6.57;6.03;;;13.90;99.90;;;;;;5043569;23;20237;-86
2022/10/20 18:44:05;;;;;;;6.87;6.17;;;13.90;99.90;;;;;;4880687;29;20188;-87
2022/10/20 18:46:56;;;;;;;7.50;6.27;;;13.80;99.90;;;;;;4998851;23;20244;-86
2022/10/20 18:49:24;;;;;;;8.20;6.47;;;13.90;99.90;;;;;;4989236;23;20252;-87
2022/10/20 18:51:50;;;;;;;6.23;5.63;;;13.80;99.90;;;;;;4932886;29;20683;-87
2022/10/20 18:59:41;;;;;;;7.60;5.60;;;13.70;99.90;;;;;;5880359;23;21444;-87
2022/10/20 19:04:56;;;;;;;5.83;5.30;;;13.70;99.90;;;;;;5702872;23;20240;31
2022/10/20 19:07:22;;;;;;;7.47;6.20;;;13.70;99.90;;;;;;4922817;29;20208;-87
2022/10/20 19:09:53;;;;;;;7.23;5.60;;;13.70;99.90;;;;;;4931491;29;20217;-88
2022/10/20 19:12:29;;;;;;;6.47;5.83;;;13.70;99.90;;;;;;4930408;29;20188;-87
2022/10/20 19:15:05;;;;;;;5.97;5.37;;;13.80;99.90;;;;;;4933102;29;20172;-88
2022/10/20 19:17:31;;;;;;;7.70;5.80;;;13.70;99.90;;;;;;5204124;23;20242;-87
2022/10/20 19:19:57;;;;;;;6.60;5.90;;;13.70;99.90;;;;;;4957048;29;20191;-87
2022/10/20 19:22:23;;;;;;;6.60;6.00;;;13.70;99.90;;;;;;4940172;29;20679;-87
2022/10/20 19:24:49;;;;;;;6.67;5.97;;;13.70;99.90;;;;;;4940232;29;20233;-88
2022/10/20 19:27:14;;;;;;;7.73;6.57;;;13.70;99.90;;;;;;4941660;29;20214;-86
2022/10/20 19:29:40;;;;;;;7.53;6.43;;;13.70;99.90;;;;;;4959328;29;20242;-86
2022/10/20 19:32:06;;;;;;;6.80;6.17;;;13.70;99.90;;;;;;4959425;29;20166;-87
2022/10/20 19:37:03;;;;;;;7.67;6.20;;;13.70;99.90;;;;;;4974651;29;20222;-87
2022/10/20 19:39:35;;;;;;;11.40;6.43;;;13.70;99.90;;;;;;4944772;29;20178;-87
2022/10/20 19:42:05;;;;;;;6.60;6.00;;;13.70;99.90;;;;;;4935155;29;20182;-88
2022/10/20 19:44:32;;;;;;;6.60;5.93;;;13.70;99.90;;;;;;4930405;29;20184;-87
2022/10/20 19:46:58;;;;;;;7.13;6.30;;;13.60;99.90;;;;;;4925946;29;20562;-86
2022/10/20 19:49:26;;;;;;;9.13;6.73;;;13.70;99.90;;;;;;4942957;29;20195;-87
2022/10/20 19:51:53;;;;;;;8.17;6.03;;;13.80;99.90;;;;;;4944961;29;20680;-87
2022/10/20 19:54:19;;;;;;;5.90;5.37;;;13.80;99.90;;;;;;4918349;29;20204;-87
2022/10/20 19:56:46;;;;;;;6.50;5.93;;;13.70;99.90;;;;;;4938181;29;20187;-86
2022/10/20 19:59:12;;;;;;;6.83;6.13;;;13.80;99.90;;;;;;4948238;29;20210;-86
2022/10/20 20:01:38;;;;;;;6.90;6.13;;;13.80;99.90;;;;;;4952871;29;20180;-87
2022/10/20 20:04:25;;;;;;;8.30;6.57;;;13.70;99.90;;;;;;4914237;29;20180;-86
2022/10/20 20:06:51;;;;;;;6.67;5.90;;;13.70;99.90;;;;;;4926764;29;20238;-88
2022/10/20 20:09:17;;;;;;;7.47;5.50;;;13.70;99.90;;;;;;4947864;29;20640;-88
2022/10/20 20:11:43;;;;;;;6.60;5.97;;;13.70;99.90;;;;;;4975938;23;20246;-88
2022/10/20 20:14:16;;;;;;;6.80;6.20;;;13.70;99.90;;;;;;4950308;29;20223;-88
2022/10/20 20:16:44;;;;;;;5.70;5.13;;;13.70;99.90;;;;;;4969355;29;20594;-88
2022/10/20 20:19:10;;;;;;;9.03;5.47;;;13.70;99.90;;;;;;4944707;29;20188;-88
2022/10/20 20:21:36;;;;;;;6.33;5.73;;;13.70;99.90;;;;;;4959148;29;20263;-88
2022/10/20 20:24:03;;;;;;;6.17;5.47;;;13.60;99.90;;;;;;4959027;29;20199;-89
2022/10/20 20:26:32;;;;;;;6.70;5.80;;;13.70;99.90;;;;;;4942067;29;20183;-88
2022/10/20 20:28:58;;;;;;;6.23;5.47;;;13.70;99.90;;;;;;4958486;29;20179;-88
2022/10/20 20:31:25;;;;;;;5.27;4.87;;;13.70;99.90;;;;;;4943089;29;20179;-89
2022/10/20 20:33:52;;;;;;;6.20;5.60;;;13.70;99.90;;;;;;4939984;29;20168;-89
2022/10/20 20:36:18;;;;;;;6.67;5.60;;;13.70;99.90;;;;;;4943678;29;20363;-89
2022/10/20 20:38:46;;;;;;;7.13;5.60;;;13.80;99.90;;;;;;4947177;29;20231;-88
2022/10/20 20:41:15;;;;;;;7.80;6.03;;;13.80;99.90;;;;;;4940670;29;20179;-88
2022/10/20 20:43:44;;;;;;;6.80;5.23;;;13.80;99.90;;;;;;4942496;29;20186;-89
2022/10/20 20:46:18;;;;;;;6.50;5.90;;;13.80;99.90;;;;;;4942330;29;20179;-88
2022/10/20 20:48:44;;;;;;;6.00;5.50;;;13.70;99.90;;;;;;4927671;29;20227;-89
2022/10/20 20:51:23;;;;;;;7.30;6.00;;;13.80;99.90;;;;;;4961803;28;20182;-88
2022/10/20 20:53:49;;;;;;;5.80;5.30;;;13.90;99.90;;;;;;4940392;29;20210;-88
2022/10/20 20:56:17;;;;;;;6.60;5.87;;;13.90;99.90;;;;;;4937694;29;20225;-88
2022/10/20 20:58:47;;;;;;;7.60;6.10;;;13.70;99.90;;;;;;4937593;29;20218;-89
2022/10/20 21:01:18;;;;;;;6.57;5.83;;;13.70;99.90;;;;;;4937457;29;20183;-88
2022/10/20 21:03:44;;;;;;;6.70;5.70;;;13.70;99.90;;;;;;4956407;29;20164;-88
2022/10/20 21:06:15;;;;;;;7.20;6.50;;;13.70;99.90;;;;;;4960220;29;20183;-90
2022/10/20 21:08:43;;;;;;;7.10;6.47;;;13.70;99.90;;;;;;4939960;29;20175;-88
2022/10/20 21:11:21;;;;;;;6.43;5.83;;;13.70;99.90;;;;;;4955806;29;20281;-88
2022/10/20 21:13:48;;;;;;;7.40;6.50;;;13.70;99.90;;;;;;4961385;28;20195;-87
2022/10/20 21:16:20;;;;;;;7.10;6.50;;;13.70;99.90;;;;;;4992721;28;20172;-88
2022/10/20 21:18:48;;;;;;;6.97;6.27;;;13.70;99.90;;;;;;4970677;29;20196;-88
2022/10/20 21:21:16;;;;;;;7.00;6.00;;;13.80;99.90;;;;;;4956462;28;20163;-88
2022/10/20 21:23:43;;;;;;;6.87;6.07;;;13.80;99.90;;;;;;4978239;28;20783;-88
2022/10/20 21:26:10;;;;;;;7.50;5.63;;;13.80;99.90;;;;;;4985563;28;20175;-87
2022/10/20 21:28:36;;;;;;;6.77;6.07;;;13.80;99.90;;;;;;4975951;28;20210;-88
2022/10/20 21:31:10;;;;;;;6.43;5.87;;;13.80;99.90;;;;;;4937277;29;20194;-88
2022/10/20 21:33:37;;;;;;;6.60;6.00;;;13.80;99.90;;;;;;4953516;28;20695;-87
2022/10/20 21:36:07;;;;;;;7.53;6.23;;;13.80;99.90;;;;;;4953629;28;20191;-87
2022/10/20 21:38:35;;;;;;;7.07;6.40;;;13.80;99.90;;;;;;4958041;28;20209;-87
2022/10/20 21:41:21;;;;;;;6.20;5.60;;;13.80;99.90;;;;;;4973963;28;20203;-87
2022/10/20 21:43:49;;;;;;;6.17;5.57;;;13.80;99.90;;;;;;4974545;28;20638;-89
2022/10/20 21:46:21;;;;;;;6.83;6.20;;;13.70;99.90;;;;;;4963580;28;20266;-87
2022/10/20 21:48:49;;;;;;;7.43;6.10;;;13.70;99.90;;;;;;4971409;28;20543;-87
2022/10/20 21:51:21;;;;;;;7.70;6.23;;;13.60;99.90;;;;;;4956336;28;20172;-86
2022/10/20 21:53:48;;;;;;;6.63;6.03;;;13.70;99.90;;;;;;4956546;28;20278;-86
2022/10/20 21:56:14;;;;;;;6.40;5.80;;;13.70;99.90;;;;;;4973603;28;20536;-87
2022/10/20 21:58:41;;;;;;;7.27;6.37;;;13.60;99.90;;;;;;4948655;29;20229;-87
2022/10/20 22:01:18;;;;;;;6.70;6.10;;;13.60;99.90;;;;;;4944972;29;20191;-88
2022/10/20 22:03:45;;;;;;;7.40;6.17;;;13.70;99.90;;;;;;4952970;28;20174;-88
2022/10/20 22:06:13;;;;;;;7.03;6.03;;;13.60;99.90;;;;;;4940797;29;20198;-88
2022/10/20 22:08:41;;;;;;;7.20;6.50;;;13.60;99.90;;;;;;4958062;29;20175;-87
2022/10/20 22:11:13;;;;;;;6.97;6.37;;;13.60;99.90;;;;;;4940208;29;20258;-88
2022/10/20 22:13:39;;;;;;;7.20;6.47;;;13.70;99.90;;;;;;4940574;29;20175;-87
2022/10/20 22:16:07;;;;;;;7.03;6.30;;;13.70;99.90;;;;;;4967923;28;20643;-88
2022/10/20 22:18:44;;;;;;;6.97;6.27;;;13.60;99.90;;;;;;4960927;28;20221;-87
2022/10/20 22:21:13;;;;;;;7.40;6.50;;;13.50;99.90;;;;;;4976931;28;20722;-87
2022/10/20 22:23:38;;;;;;;7.83;7.03;;;13.50;99.90;;;;;;4977370;28;20167;-87
2022/10/20 22:26:08;;;;;;;7.33;6.63;;;13.40;99.90;;;;;;4977172;28;20179;-87
2022/10/20 22:28:34;;;;;;;7.73;6.43;;;13.40;99.90;;;;;;4959863;28;20665;-86
2022/10/20 22:31:00;;;;;;;7.60;6.70;;;13.50;99.90;;;;;;4952449;29;20208;-87
2022/10/20 22:33:26;;;;;;;7.77;6.80;;;13.40;99.90;;;;;;4955950;28;20648;-87
2022/10/20 22:35:51;;;;;;;6.90;6.30;;;13.40;99.90;;;;;;4940561;29;20206;-86
2022/10/20 22:38:17;;;;;;;9.20;7.17;;;13.30;99.90;;;;;;4961425;29;20238;-87
2022/10/20 22:40:43;;;;;;;6.97;6.37;;;13.40;99.90;;;;;;4957938;29;20250;-88
2022/10/20 22:43:08;;;;;;;9.87;7.00;;;13.40;99.90;;;;;;4940612;29;20189;-88
2022/10/20 22:45:34;;;;;;;7.30;6.23;;;13.30;99.90;;;;;;4940576;29;20186;-89
2022/10/20 22:48:00;;;;;;;7.20;5.97;;;13.30;99.90;;;;;;4957533;29;20232;-88
2022/10/20 22:50:26;;;;;;;10.00;7.10;;;13.30;99.90;;;;;;4940517;29;20179;-89
2022/10/20 22:52:52;;;;;;;7.20;6.50;;;13.30;99.90;;;;;;4967850;29;20163;-87
2022/10/20 22:55:18;;;;;;;6.63;6.03;;;13.20;99.90;;;;;;4981057;29;20177;-88
2022/10/20 22:57:50;;;;;;;8.77;6.93;;;13.20;99.90;;;;;;4952398;29;20678;-89
2022/10/20 23:00:18;;;;;;;6.87;6.13;;;13.20;99.90;;;;;;4941111;29;20187;-88
2022/10/20 23:02:44;;;;;;;8.43;6.70;;;13.10;99.90;;;;;;4957505;29;20261;-88
2022/10/20 23:05:10;;;;;;;7.63;6.90;;;13.10;99.90;;;;;;4957227;29;20167;-89
2022/10/20 23:07:36;;;;;;;6.93;6.33;;;13.10;99.90;;;;;;4939815;29;20280;-89
2022/10/20 23:10:02;;;;;;;7.90;6.73;;;13.10;99.90;;;;;;4956911;29;20517;-89
2022/10/20 23:12:29;;;;;;;8.43;7.30;;;13.00;99.90;;;;;;4939645;29;20242;-89
2022/10/20 23:14:55;;;;;;;7.50;6.80;;;12.90;99.90;;;;;;4972366;28;20159;-89
2022/10/20 23:17:21;;;;;;;8.60;7.27;;;12.80;99.90;;;;;;4980710;28;20199;-88
2022/10/20 23:19:47;;;;;;;8.47;6.87;;;12.80;99.90;;;;;;4969321;29;20256;-89
2022/10/20 23:22:13;;;;;;;7.33;6.63;;;12.70;99.90;;;;;;4940091;29;20304;-89
2022/10/20 23:24:39;;;;;;;8.40;7.27;;;12.70;99.90;;;;;;4955487;29;20179;-88
2022/10/20 23:27:06;;;;;;;7.77;7.07;;;12.50;99.90;;;;;;4939328;29;20601;-88
2022/10/20 23:29:32;;;;;;;8.70;7.70;;;12.50;99.90;;;;;;4956441;29;20172;-89
2022/10/20 23:31:58;;;;;;;8.43;7.53;;;12.40;99.90;;;;;;4956373;29;20206;-88
2022/10/20 23:34:24;;;;;;;13.87;7.47;;;12.40;99.90;;;;;;4956431;29;20661;-87
2022/10/20 23:36:50;;;;;;;9.63;7.17;;;12.30;99.90;;;;;;4956154;29;20210;-88
2022/10/20 23:39:15;;;;;;;8.23;7.40;;;12.30;99.90;;;;;;4939103;29;20220;-89
2022/10/20 23:41:41;;;;;;;8.00;7.30;;;12.40;99.90;;;;;;4956508;29;20236;-89
2022/10/20 23:44:07;;;;;;;8.70;7.03;;;12.40;99.90;;;;;;4956226;29;20182;-87
2022/10/20 23:46:33;;;;;;;8.07;7.27;;;12.40;99.90;;;;;;4956274;29;20175;-89
2022/10/20 23:49:00;;;;;;;10.13;7.67;;;12.40;99.90;;;;;;4956112;29;20614;-89
2022/10/20 23:51:26;;;;;;;8.07;6.83;;;12.30;99.90;;;;;;4956504;29;20182;-89
2022/10/20 23:53:51;;;;;;;7.90;7.10;;;12.30;99.90;;;;;;4955935;29;20171;-86
2022/10/20 23:56:17;;;;;;;9.07;7.90;;;12.30;99.90;;;;;;4955996;29;20183;-86
2022/10/20 23:58:43;;;;;;;9.10;8.20;;;12.30;99.90;;;;;;4955717;29;20253;-87
